sensor_id;sensor_type;location;lat;lon;timestamp;temperature;humidity
24144;DHT22;12307;50.828;6.080;2023-03-18T00:00:38;20.20;52.20
24144;DHT22;12307;50.828;6.080;2023-03-18T00:03:04;20.10;52.10
24144;DHT22;12307;50.828;6.080;2023-03-18T00:05:32;20.10;52.10
24144;DHT22;12307;50.828;6.080;2023-03-18T00:07:58;20.10;52.10
24144;DHT22;12307;50.828;6.080;2023-03-18T00:10:24;20.10;52.10
24144;DHT22;12307;50.828;6.080;2023-03-18T00:12:50;20.10;52.20
24144;DHT22;12307;50.828;6.080;2023-03-18T00:15:18;20.10;52.20
24144;DHT22;12307;50.828;6.080;2023-03-18T00:17:44;20.10;52.20
24144;DHT22;12307;50.828;6.080;2023-03-18T00:20:14;20.10;52.20
24144;DHT22;12307;50.828;6.080;2023-03-18T00:22:43;20.10;52.20
24144;DHT22;12307;50.828;6.080;2023-03-18T00:25:12;20.10;52.20
24144;DHT22;12307;50.828;6.080;2023-03-18T00:27:38;20.10;52.20
24144;DHT22;12307;50.828;6.080;2023-03-18T00:30:06;20.10;52.20
24144;DHT22;12307;50.828;6.080;2023-03-18T00:32:32;20.10;52.20
24144;DHT22;12307;50.828;6.080;2023-03-18T00:34:59;20.10;52.20
24144;DHT22;12307;50.828;6.080;2023-03-18T00:37:25;20.10;52.20
24144;DHT22;12307;50.828;6.080;2023-03-18T00:39:57;20.10;52.20
24144;DHT22;12307;50.828;6.080;2023-03-18T00:42:23;20.10;52.30
24144;DHT22;12307;50.828;6.080;2023-03-18T00:44:50;20.10;52.20
24144;DHT22;12307;50.828;6.080;2023-03-18T00:47:15;20.10;52.20
24144;DHT22;12307;50.828;6.080;2023-03-18T00:49:41;20.10;52.30
24144;DHT22;12307;50.828;6.080;2023-03-18T00:52:07;20.10;52.90
24144;DHT22;12307;50.828;6.080;2023-03-18T00:54:33;20.10;52.30
24144;DHT22;12307;50.828;6.080;2023-03-18T00:57:01;20.10;52.30
24144;DHT22;12307;50.828;6.080;2023-03-18T00:59:27;20.10;52.30
24144;DHT22;12307;50.828;6.080;2023-03-18T01:01:54;20.10;52.30
24144;DHT22;12307;50.828;6.080;2023-03-18T01:04:19;20.10;52.30
24144;DHT22;12307;50.828;6.080;2023-03-18T01:06:45;20.10;52.30
24144;DHT22;12307;50.828;6.080;2023-03-18T01:09:11;20.10;52.30
24144;DHT22;12307;50.828;6.080;2023-03-18T01:11:37;20.10;52.30
24144;DHT22;12307;50.828;6.080;2023-03-18T01:14:04;20.10;52.30
24144;DHT22;12307;50.828;6.080;2023-03-18T01:16:30;20.10;52.30
24144;DHT22;12307;50.828;6.080;2023-03-18T01:18:56;20.10;52.30
24144;DHT22;12307;50.828;6.080;2023-03-18T01:21:21;20.10;52.40
24144;DHT22;12307;50.828;6.080;2023-03-18T01:23:48;20.10;52.40
24144;DHT22;12307;50.828;6.080;2023-03-18T01:26:14;20.10;52.40
24144;DHT22;12307;50.828;6.080;2023-03-18T01:28:40;20.10;52.40
24144;DHT22;12307;50.828;6.080;2023-03-18T01:31:08;20.10;52.40
24144;DHT22;12307;50.828;6.080;2023-03-18T01:33:34;20.10;52.40
24144;DHT22;12307;50.828;6.080;2023-03-18T01:36:00;20.00;52.40
24144;DHT22;12307;50.828;6.080;2023-03-18T01:38:28;20.10;52.40
24144;DHT22;12307;50.828;6.080;2023-03-18T01:40:57;20.00;52.40
24144;DHT22;12307;50.828;6.080;2023-03-18T01:43:25;20.10;52.50
24144;DHT22;12307;50.828;6.080;2023-03-18T01:45:56;20.00;52.50
24144;DHT22;12307;50.828;6.080;2023-03-18T01:48:26;20.00;52.50
24144;DHT22;12307;50.828;6.080;2023-03-18T01:50:55;20.00;52.50
24144;DHT22;12307;50.828;6.080;2023-03-18T01:53:26;20.00;52.50
24144;DHT22;12307;50.828;6.080;2023-03-18T01:55:53;20.00;52.50
24144;DHT22;12307;50.828;6.080;2023-03-18T01:58:24;20.00;52.60
24144;DHT22;12307;50.828;6.080;2023-03-18T02:00:54;20.00;52.50
24144;DHT22;12307;50.828;6.080;2023-03-18T02:03:23;20.00;52.60
24144;DHT22;12307;50.828;6.080;2023-03-18T02:05:50;20.00;52.60
24144;DHT22;12307;50.828;6.080;2023-03-18T02:08:16;20.00;52.60
24144;DHT22;12307;50.828;6.080;2023-03-18T02:10:42;20.00;52.60
24144;DHT22;12307;50.828;6.080;2023-03-18T02:13:10;20.00;52.60
24144;DHT22;12307;50.828;6.080;2023-03-18T02:15:40;20.00;52.60
24144;DHT22;12307;50.828;6.080;2023-03-18T02:18:12;20.00;52.60
24144;DHT22;12307;50.828;6.080;2023-03-18T02:20:52;19.90;52.50
24144;DHT22;12307;50.828;6.080;2023-03-18T02:23:28;20.00;52.60
24144;DHT22;12307;50.828;6.080;2023-03-18T02:26:02;19.90;52.50
24144;DHT22;12307;50.828;6.080;2023-03-18T02:28:34;19.90;52.50
24144;DHT22;12307;50.828;6.080;2023-03-18T02:31:04;19.90;52.50
24144;DHT22;12307;50.828;6.080;2023-03-18T02:33:35;19.90;52.60
24144;DHT22;12307;50.828;6.080;2023-03-18T02:36:06;19.90;52.60
24144;DHT22;12307;50.828;6.080;2023-03-18T02:38:33;19.90;52.60
24144;DHT22;12307;50.828;6.080;2023-03-18T02:40:58;19.90;52.60
24144;DHT22;12307;50.828;6.080;2023-03-18T02:43:26;19.90;52.70
24144;DHT22;12307;50.828;6.080;2023-03-18T02:46:11;19.90;52.70
24144;DHT22;12307;50.828;6.080;2023-03-18T02:48:44;19.90;52.70
24144;DHT22;12307;50.828;6.080;2023-03-18T02:51:11;19.90;52.70
24144;DHT22;12307;50.828;6.080;2023-03-18T02:53:37;19.90;52.70
24144;DHT22;12307;50.828;6.080;2023-03-18T02:56:04;19.90;52.70
24144;DHT22;12307;50.828;6.080;2023-03-18T02:58:31;19.90;52.80
24144;DHT22;12307;50.828;6.080;2023-03-18T03:00:57;19.90;52.80
24144;DHT22;12307;50.828;6.080;2023-03-18T03:03:25;19.90;52.80
24144;DHT22;12307;50.828;6.080;2023-03-18T03:05:51;19.90;52.80
24144;DHT22;12307;50.828;6.080;2023-03-18T03:08:17;19.90;52.80
24144;DHT22;12307;50.828;6.080;2023-03-18T03:10:43;19.90;52.80
24144;DHT22;12307;50.828;6.080;2023-03-18T03:13:08;19.90;52.80
24144;DHT22;12307;50.828;6.080;2023-03-18T03:15:34;19.90;52.80
24144;DHT22;12307;50.828;6.080;2023-03-18T03:18:01;19.90;52.80
24144;DHT22;12307;50.828;6.080;2023-03-18T03:20:30;19.90;52.90
24144;DHT22;12307;50.828;6.080;2023-03-18T03:23:00;19.90;52.90
24144;DHT22;12307;50.828;6.080;2023-03-18T03:25:26;19.90;52.90
24144;DHT22;12307;50.828;6.080;2023-03-18T03:27:52;19.90;52.90
24144;DHT22;12307;50.828;6.080;2023-03-18T03:30:19;19.90;52.90
24144;DHT22;12307;50.828;6.080;2023-03-18T03:32:45;19.90;53.00
24144;DHT22;12307;50.828;6.080;2023-03-18T03:35:12;19.90;53.00
24144;DHT22;12307;50.828;6.080;2023-03-18T03:37:40;19.90;53.00
24144;DHT22;12307;50.828;6.080;2023-03-18T03:40:07;19.80;52.90
24144;DHT22;12307;50.828;6.080;2023-03-18T03:42:34;19.80;53.00
24144;DHT22;12307;50.828;6.080;2023-03-18T03:45:00;19.90;53.00
24144;DHT22;12307;50.828;6.080;2023-03-18T03:47:25;19.90;53.00
24144;DHT22;12307;50.828;6.080;2023-03-18T03:49:51;19.80;53.00
24144;DHT22;12307;50.828;6.080;2023-03-18T03:52:17;19.80;53.00
24144;DHT22;12307;50.828;6.080;2023-03-18T03:54:45;19.90;53.10
24144;DHT22;12307;50.828;6.080;2023-03-18T03:57:11;19.80;53.00
24144;DHT22;12307;50.828;6.080;2023-03-18T03:59:38;19.80;53.00
24144;DHT22;12307;50.828;6.080;2023-03-18T04:02:03;19.80;53.00
24144;DHT22;12307;50.828;6.080;2023-03-18T04:04:29;19.80;53.00
24144;DHT22;12307;50.828;6.080;2023-03-18T04:06:55;19.90;53.10
24144;DHT22;12307;50.828;6.080;2023-03-18T04:09:21;19.80;53.00
24144;DHT22;12307;50.828;6.080;2023-03-18T04:11:48;19.80;53.00
24144;DHT22;12307;50.828;6.080;2023-03-18T04:14:14;19.80;53.00
24144;DHT22;12307;50.828;6.080;2023-03-18T04:16:39;19.80;53.00
24144;DHT22;12307;50.828;6.080;2023-03-18T04:19:05;19.90;53.10
24144;DHT22;12307;50.828;6.080;2023-03-18T04:21:31;19.80;53.00
24144;DHT22;12307;50.828;6.080;2023-03-18T04:23:57;19.80;53.00
24144;DHT22;12307;50.828;6.080;2023-03-18T04:26:23;19.90;53.10
24144;DHT22;12307;50.828;6.080;2023-03-18T04:28:50;19.80;53.10
24144;DHT22;12307;50.828;6.080;2023-03-18T04:31:16;19.80;53.00
24144;DHT22;12307;50.828;6.080;2023-03-18T04:33:42;19.80;53.00
24144;DHT22;12307;50.828;6.080;2023-03-18T04:36:09;19.80;53.10
24144;DHT22;12307;50.828;6.080;2023-03-18T04:38:35;19.90;53.10
24144;DHT22;12307;50.828;6.080;2023-03-18T04:41:00;19.90;53.20
24144;DHT22;12307;50.828;6.080;2023-03-18T04:43:26;19.90;53.20
24144;DHT22;12307;50.828;6.080;2023-03-18T04:45:54;19.90;53.20
24144;DHT22;12307;50.828;6.080;2023-03-18T04:48:19;19.90;53.20
24144;DHT22;12307;50.828;6.080;2023-03-18T04:50:46;19.80;53.10
24144;DHT22;12307;50.828;6.080;2023-03-18T04:53:11;19.80;53.10
24144;DHT22;12307;50.828;6.080;2023-03-18T04:55:38;19.80;53.10
24144;DHT22;12307;50.828;6.080;2023-03-18T04:58:03;19.80;53.10
24144;DHT22;12307;50.828;6.080;2023-03-18T05:00:29;19.80;53.10
24144;DHT22;12307;50.828;6.080;2023-03-18T05:02:56;19.80;53.10
24144;DHT22;12307;50.828;6.080;2023-03-18T05:05:22;19.90;53.20
24144;DHT22;12307;50.828;6.080;2023-03-18T05:07:48;19.80;53.10
24144;DHT22;12307;50.828;6.080;2023-03-18T05:10:14;19.80;53.20
24144;DHT22;12307;50.828;6.080;2023-03-18T05:12:39;19.80;53.10
24144;DHT22;12307;50.828;6.080;2023-03-18T05:15:07;19.80;53.20
24144;DHT22;12307;50.828;6.080;2023-03-18T05:17:33;19.80;53.20
24144;DHT22;12307;50.828;6.080;2023-03-18T05:20:01;19.80;53.20
24144;DHT22;12307;50.828;6.080;2023-03-18T05:22:27;19.80;53.20
24144;DHT22;12307;50.828;6.080;2023-03-18T05:24:53;19.80;53.20
24144;DHT22;12307;50.828;6.080;2023-03-18T05:27:19;19.80;53.20
24144;DHT22;12307;50.828;6.080;2023-03-18T05:29:45;19.80;53.20
24144;DHT22;12307;50.828;6.080;2023-03-18T05:32:11;19.80;53.20
24144;DHT22;12307;50.828;6.080;2023-03-18T05:34:39;19.80;53.20
24144;DHT22;12307;50.828;6.080;2023-03-18T05:37:08;19.80;53.20
24144;DHT22;12307;50.828;6.080;2023-03-18T05:39:34;19.80;53.20
24144;DHT22;12307;50.828;6.080;2023-03-18T05:42:01;19.80;53.20
24144;DHT22;12307;50.828;6.080;2023-03-18T05:44:29;19.80;53.20
24144;DHT22;12307;50.828;6.080;2023-03-18T05:46:55;19.80;53.20
24144;DHT22;12307;50.828;6.080;2023-03-18T05:49:21;19.80;53.30
24144;DHT22;12307;50.828;6.080;2023-03-18T05:51:48;19.80;53.30
24144;DHT22;12307;50.828;6.080;2023-03-18T05:54:15;19.80;53.20
24144;DHT22;12307;50.828;6.080;2023-03-18T05:56:41;19.80;53.30
24144;DHT22;12307;50.828;6.080;2023-03-18T05:59:08;19.80;53.30
24144;DHT22;12307;50.828;6.080;2023-03-18T06:01:34;19.80;53.30
24144;DHT22;12307;50.828;6.080;2023-03-18T06:04:00;19.80;53.30
24144;DHT22;12307;50.828;6.080;2023-03-18T06:06:26;19.80;53.30
24144;DHT22;12307;50.828;6.080;2023-03-18T06:08:52;19.80;53.30
24144;DHT22;12307;50.828;6.080;2023-03-18T06:11:22;19.80;53.30
24144;DHT22;12307;50.828;6.080;2023-03-18T06:13:48;19.80;53.30
24144;DHT22;12307;50.828;6.080;2023-03-18T06:16:14;19.80;53.30
24144;DHT22;12307;50.828;6.080;2023-03-18T06:18:41;19.80;53.30
24144;DHT22;12307;50.828;6.080;2023-03-18T06:21:07;19.80;53.30
24144;DHT22;12307;50.828;6.080;2023-03-18T06:23:34;19.90;53.30
24144;DHT22;12307;50.828;6.080;2023-03-18T06:26:00;19.90;53.30
24144;DHT22;12307;50.828;6.080;2023-03-18T06:28:27;19.90;53.20
24144;DHT22;12307;50.828;6.080;2023-03-18T06:30:54;19.90;53.20
24144;DHT22;12307;50.828;6.080;2023-03-18T06:33:20;19.90;53.20
24144;DHT22;12307;50.828;6.080;2023-03-18T06:35:47;20.00;53.20
24144;DHT22;12307;50.828;6.080;2023-03-18T06:38:12;20.00;53.10
24144;DHT22;12307;50.828;6.080;2023-03-18T06:40:39;20.10;53.10
24144;DHT22;12307;50.828;6.080;2023-03-18T06:43:04;20.10;53.00
24144;DHT22;12307;50.828;6.080;2023-03-18T06:45:31;20.20;53.00
24144;DHT22;12307;50.828;6.080;2023-03-18T06:47:57;20.20;52.90
24144;DHT22;12307;50.828;6.080;2023-03-18T06:50:25;20.20;52.80
24144;DHT22;12307;50.828;6.080;2023-03-18T06:52:51;20.30;52.80
24144;DHT22;12307;50.828;6.080;2023-03-18T06:55:16;20.30;52.70
24144;DHT22;12307;50.828;6.080;2023-03-18T06:57:42;20.30;52.70
24144;DHT22;12307;50.828;6.080;2023-03-18T07:00:11;20.40;52.80
24144;DHT22;12307;50.828;6.080;2023-03-18T07:02:38;20.40;52.70
24144;DHT22;12307;50.828;6.080;2023-03-18T07:05:04;20.50;52.70
24144;DHT22;12307;50.828;6.080;2023-03-18T07:07:30;20.50;52.60
24144;DHT22;12307;50.828;6.080;2023-03-18T07:09:59;20.50;52.50
24144;DHT22;12307;50.828;6.080;2023-03-18T07:12:25;20.60;52.60
24144;DHT22;12307;50.828;6.080;2023-03-18T07:14:51;20.60;53.10
24144;DHT22;12307;50.828;6.080;2023-03-18T07:17:18;20.70;52.50
24144;DHT22;12307;50.828;6.080;2023-03-18T07:19:45;20.70;52.40
24144;DHT22;12307;50.828;6.080;2023-03-18T07:22:11;20.70;52.40
24144;DHT22;12307;50.828;6.080;2023-03-18T07:24:37;20.80;52.40
24144;DHT22;12307;50.828;6.080;2023-03-18T07:27:03;20.90;52.40
24144;DHT22;12307;50.828;6.080;2023-03-18T07:29:28;20.90;52.30
24144;DHT22;12307;50.828;6.080;2023-03-18T07:31:55;21.00;52.20
24144;DHT22;12307;50.828;6.080;2023-03-18T07:34:21;21.00;52.10
24144;DHT22;12307;50.828;6.080;2023-03-18T07:36:49;21.10;52.00
24144;DHT22;12307;50.828;6.080;2023-03-18T07:39:14;21.20;52.10
24144;DHT22;12307;50.828;6.080;2023-03-18T07:41:40;21.20;52.00
24144;DHT22;12307;50.828;6.080;2023-03-18T07:44:06;21.30;52.00
24144;DHT22;12307;50.828;6.080;2023-03-18T07:46:32;21.30;51.90
24144;DHT22;12307;50.828;6.080;2023-03-18T07:48:58;21.40;51.90
24144;DHT22;12307;50.828;6.080;2023-03-18T07:51:24;21.60;51.80
24144;DHT22;12307;50.828;6.080;2023-03-18T07:53:52;21.70;51.70
24144;DHT22;12307;50.828;6.080;2023-03-18T07:56:17;21.80;51.50
24144;DHT22;12307;50.828;6.080;2023-03-18T07:58:43;22.00;51.40
24144;DHT22;12307;50.828;6.080;2023-03-18T08:01:09;22.10;51.30
24144;DHT22;12307;50.828;6.080;2023-03-18T08:03:36;22.20;51.10
24144;DHT22;12307;50.828;6.080;2023-03-18T08:06:02;22.20;51.10
24144;DHT22;12307;50.828;6.080;2023-03-18T08:08:28;22.20;51.00
24144;DHT22;12307;50.828;6.080;2023-03-18T08:10:57;22.30;51.00
24144;DHT22;12307;50.828;6.080;2023-03-18T08:13:24;22.30;50.90
24144;DHT22;12307;50.828;6.080;2023-03-18T08:15:50;22.30;50.80
24144;DHT22;12307;50.828;6.080;2023-03-18T08:18:16;22.40;50.70
24144;DHT22;12307;50.828;6.080;2023-03-18T08:20:41;22.60;50.60
24144;DHT22;12307;50.828;6.080;2023-03-18T08:23:07;22.80;50.40
24144;DHT22;12307;50.828;6.080;2023-03-18T08:25:33;23.10;50.10
24144;DHT22;12307;50.828;6.080;2023-03-18T08:28:00;23.30;49.80
24144;DHT22;12307;50.828;6.080;2023-03-18T08:30:26;23.70;49.40
24144;DHT22;12307;50.828;6.080;2023-03-18T08:32:53;24.00;49.00
24144;DHT22;12307;50.828;6.080;2023-03-18T08:35:19;24.30;48.60
24144;DHT22;12307;50.828;6.080;2023-03-18T08:37:45;24.60;48.30
24144;DHT22;12307;50.828;6.080;2023-03-18T08:40:12;24.80;48.00
24144;DHT22;12307;50.828;6.080;2023-03-18T08:42:37;25.00;47.70
24144;DHT22;12307;50.828;6.080;2023-03-18T08:45:05;25.20;47.40
24144;DHT22;12307;50.828;6.080;2023-03-18T08:47:31;25.40;47.10
24144;DHT22;12307;50.828;6.080;2023-03-18T08:49:57;25.80;46.80
24144;DHT22;12307;50.828;6.080;2023-03-18T08:52:23;26.10;46.40
24144;DHT22;12307;50.828;6.080;2023-03-18T08:54:49;26.40;46.20
24144;DHT22;12307;50.828;6.080;2023-03-18T08:57:14;26.70;45.70
24144;DHT22;12307;50.828;6.080;2023-03-18T08:59:40;26.90;45.40
24144;DHT22;12307;50.828;6.080;2023-03-18T09:02:12;27.10;45.10
24144;DHT22;12307;50.828;6.080;2023-03-18T09:04:39;27.20;44.80
24144;DHT22;12307;50.828;6.080;2023-03-18T09:07:05;27.20;44.80
24144;DHT22;12307;50.828;6.080;2023-03-18T09:09:30;27.20;45.30
24144;DHT22;12307;50.828;6.080;2023-03-18T09:11:56;27.30;44.60
24144;DHT22;12307;50.828;6.080;2023-03-18T09:14:22;27.40;44.30
24144;DHT22;12307;50.828;6.080;2023-03-18T09:16:48;27.70;44.00
24144;DHT22;12307;50.828;6.080;2023-03-18T09:19:15;28.00;43.70
24144;DHT22;12307;50.828;6.080;2023-03-18T09:21:40;28.30;43.40
24144;DHT22;12307;50.828;6.080;2023-03-18T09:24:07;28.70;43.10
24144;DHT22;12307;50.828;6.080;2023-03-18T09:26:33;28.90;42.70
24144;DHT22;12307;50.828;6.080;2023-03-18T09:28:59;29.20;42.40
24144;DHT22;12307;50.828;6.080;2023-03-18T09:31:25;29.40;42.10
24144;DHT22;12307;50.828;6.080;2023-03-18T09:33:51;29.70;41.80
24144;DHT22;12307;50.828;6.080;2023-03-18T09:36:18;29.80;41.40
24144;DHT22;12307;50.828;6.080;2023-03-18T09:38:44;30.00;41.20
24144;DHT22;12307;50.828;6.080;2023-03-18T09:41:20;30.20;41.00
24144;DHT22;12307;50.828;6.080;2023-03-18T09:43:55;30.40;40.70
24144;DHT22;12307;50.828;6.080;2023-03-18T09:46:28;30.50;40.40
24144;DHT22;12307;50.828;6.080;2023-03-18T09:49:14;30.70;40.10
24144;DHT22;12307;50.828;6.080;2023-03-18T09:51:55;30.80;39.80
24144;DHT22;12307;50.828;6.080;2023-03-18T09:54:28;30.30;40.00
24144;DHT22;12307;50.828;6.080;2023-03-18T09:56:57;29.80;40.40
24144;DHT22;12307;50.828;6.080;2023-03-18T09:59:27;29.30;40.70
24144;DHT22;12307;50.828;6.080;2023-03-18T10:01:55;29.00;40.90
24144;DHT22;12307;50.828;6.080;2023-03-18T10:04:23;28.90;40.90
24144;DHT22;12307;50.828;6.080;2023-03-18T10:06:56;29.10;41.50
24144;DHT22;12307;50.828;6.080;2023-03-18T10:09:27;29.40;40.60
24144;DHT22;12307;50.828;6.080;2023-03-18T10:12:00;29.50;40.40
24144;DHT22;12307;50.828;6.080;2023-03-18T10:14:34;29.50;40.30
24144;DHT22;12307;50.828;6.080;2023-03-18T10:17:07;29.70;40.20
24144;DHT22;12307;50.828;6.080;2023-03-18T10:19:36;29.70;40.10
24144;DHT22;12307;50.828;6.080;2023-03-18T10:22:20;29.70;40.10
24144;DHT22;12307;50.828;6.080;2023-03-18T10:24:55;30.00;39.80
24144;DHT22;12307;50.828;6.080;2023-03-18T10:27:40;30.30;39.60
24144;DHT22;12307;50.828;6.080;2023-03-18T10:30:20;30.00;39.70
24144;DHT22;12307;50.828;6.080;2023-03-18T10:32:57;29.60;40.00
24144;DHT22;12307;50.828;6.080;2023-03-18T10:35:32;29.10;40.20
24144;DHT22;12307;50.828;6.080;2023-03-18T10:38:02;28.60;40.60
24144;DHT22;12307;50.828;6.080;2023-03-18T10:40:33;28.10;41.10
24144;DHT22;12307;50.828;6.080;2023-03-18T10:43:02;27.60;41.50
24144;DHT22;12307;50.828;6.080;2023-03-18T10:45:29;27.10;42.10
24144;DHT22;12307;50.828;6.080;2023-03-18T10:47:59;26.60;42.50
24144;DHT22;12307;50.828;6.080;2023-03-18T10:50:31;26.30;42.90
24144;DHT22;12307;50.828;6.080;2023-03-18T10:53:03;26.10;43.10
24144;DHT22;12307;50.828;6.080;2023-03-18T10:55:34;25.80;43.40
24144;DHT22;12307;50.828;6.080;2023-03-18T10:58:01;25.60;43.70
24144;DHT22;12307;50.828;6.080;2023-03-18T11:00:34;25.40;44.00
24144;DHT22;12307;50.828;6.080;2023-03-18T11:03:00;25.10;44.20
24144;DHT22;12307;50.828;6.080;2023-03-18T11:05:30;24.80;44.60
24144;DHT22;12307;50.828;6.080;2023-03-18T11:07:59;24.60;45.00
24144;DHT22;12307;50.828;6.080;2023-03-18T11:10:30;24.30;45.20
24144;DHT22;12307;50.828;6.080;2023-03-18T11:12:57;24.10;45.60
24144;DHT22;12307;50.828;6.080;2023-03-18T11:15:24;24.00;45.80
24144;DHT22;12307;50.828;6.080;2023-03-18T11:17:51;23.90;46.00
24144;DHT22;12307;50.828;6.080;2023-03-18T11:20:29;23.80;46.20
24144;DHT22;12307;50.828;6.080;2023-03-18T11:23:03;23.70;46.30
24144;DHT22;12307;50.828;6.080;2023-03-18T11:25:39;23.60;46.50
24144;DHT22;12307;50.828;6.080;2023-03-18T11:28:18;23.60;46.70
24144;DHT22;12307;50.828;6.080;2023-03-18T11:30:47;23.50;46.80
24144;DHT22;12307;50.828;6.080;2023-03-18T11:33:15;23.40;46.90
24144;DHT22;12307;50.828;6.080;2023-03-18T11:35:45;23.40;47.00
24144;DHT22;12307;50.828;6.080;2023-03-18T11:38:17;23.40;47.20
24144;DHT22;12307;50.828;6.080;2023-03-18T11:40:45;23.30;47.30
24144;DHT22;12307;50.828;6.080;2023-03-18T11:43:19;23.20;47.50
24144;DHT22;12307;50.828;6.080;2023-03-18T11:45:49;23.10;47.70
24144;DHT22;12307;50.828;6.080;2023-03-18T11:48:18;23.00;47.80
24144;DHT22;12307;50.828;6.080;2023-03-18T11:51:07;23.00;48.00
24144;DHT22;12307;50.828;6.080;2023-03-18T11:53:46;22.90;48.10
24144;DHT22;12307;50.828;6.080;2023-03-18T11:56:22;22.80;48.20
24144;DHT22;12307;50.828;6.080;2023-03-18T12:01:50;22.70;48.40
24144;DHT22;12307;50.828;6.080;2023-03-18T12:04:31;22.70;48.50
24144;DHT22;12307;50.828;6.080;2023-03-18T12:07:11;22.70;48.50
24144;DHT22;12307;50.828;6.080;2023-03-18T12:09:43;22.70;48.60
24144;DHT22;12307;50.828;6.080;2023-03-18T12:12:39;22.60;48.60
24144;DHT22;12307;50.828;6.080;2023-03-18T12:15:12;22.60;48.70
24144;DHT22;12307;50.828;6.080;2023-03-18T12:17:45;22.60;48.80
24144;DHT22;12307;50.828;6.080;2023-03-18T12:20:38;22.50;48.90
24144;DHT22;12307;50.828;6.080;2023-03-18T12:23:17;22.50;49.00
24144;DHT22;12307;50.828;6.080;2023-03-18T12:25:57;22.40;49.00
24144;DHT22;12307;50.828;6.080;2023-03-18T12:28:39;22.30;49.10
24144;DHT22;12307;50.828;6.080;2023-03-18T12:31:32;22.30;49.20
24144;DHT22;12307;50.828;6.080;2023-03-18T12:34:02;22.30;49.30
24144;DHT22;12307;50.828;6.080;2023-03-18T12:36:40;22.20;49.30
24144;DHT22;12307;50.828;6.080;2023-03-18T12:39:36;22.20;49.50
24144;DHT22;12307;50.828;6.080;2023-03-18T12:42:09;22.20;49.60
24144;DHT22;12307;50.828;6.080;2023-03-18T12:44:48;22.10;49.60
24144;DHT22;12307;50.828;6.080;2023-03-18T12:47:21;22.00;49.70
24144;DHT22;12307;50.828;6.080;2023-03-18T12:49:50;22.00;49.80
24144;DHT22;12307;50.828;6.080;2023-03-18T12:52:25;22.00;49.90
24144;DHT22;12307;50.828;6.080;2023-03-18T12:54:56;21.90;50.00
24144;DHT22;12307;50.828;6.080;2023-03-18T12:57:31;21.90;50.00
24144;DHT22;12307;50.828;6.080;2023-03-18T13:00:02;21.80;50.10
24144;DHT22;12307;50.828;6.080;2023-03-18T13:02:44;21.80;50.20
24144;DHT22;12307;50.828;6.080;2023-03-18T13:05:20;21.80;50.30
24144;DHT22;12307;50.828;6.080;2023-03-18T13:07:52;21.70;50.40
24144;DHT22;12307;50.828;6.080;2023-03-18T13:10:19;21.70;50.50
24144;DHT22;12307;50.828;6.080;2023-03-18T13:12:47;21.80;50.50
24144;DHT22;12307;50.828;6.080;2023-03-18T13:15:22;22.00;50.30
24144;DHT22;12307;50.828;6.080;2023-03-18T13:17:54;22.20;50.30
24144;DHT22;12307;50.828;6.080;2023-03-18T13:20:23;22.40;50.10
24144;DHT22;12307;50.828;6.080;2023-03-18T13:25:59;22.60;49.90
24144;DHT22;12307;50.828;6.080;2023-03-18T13:28:42;22.80;49.70
24144;DHT22;12307;50.828;6.080;2023-03-18T13:31:19;22.90;49.60
24144;DHT22;12307;50.828;6.080;2023-03-18T13:34:18;23.00;49.50
24144;DHT22;12307;50.828;6.080;2023-03-18T13:42:50;23.10;49.30
24144;DHT22;12307;50.828;6.080;2023-03-18T13:45:24;23.10;49.30
24144;DHT22;12307;50.828;6.080;2023-03-18T13:47:57;23.10;49.40
24144;DHT22;12307;50.828;6.080;2023-03-18T13:50:32;23.00;49.30
24144;DHT22;12307;50.828;6.080;2023-03-18T13:52:59;23.00;49.40
24144;DHT22;12307;50.828;6.080;2023-03-18T13:55:30;23.00;49.50
24144;DHT22;12307;50.828;6.080;2023-03-18T13:58:08;23.00;49.50
24144;DHT22;12307;50.828;6.080;2023-03-18T14:00:42;22.90;49.60
24144;DHT22;12307;50.828;6.080;2023-03-18T14:03:28;22.90;49.70
24144;DHT22;12307;50.828;6.080;2023-03-18T14:06:20;22.80;49.80
24144;DHT22;12307;50.828;6.080;2023-03-18T14:08:49;22.80;49.90
24144;DHT22;12307;50.828;6.080;2023-03-18T14:11:39;22.70;50.00
24144;DHT22;12307;50.828;6.080;2023-03-18T14:14:40;22.70;50.10
24144;DHT22;12307;50.828;6.080;2023-03-18T14:17:25;22.70;50.10
24144;DHT22;12307;50.828;6.080;2023-03-18T14:19:55;22.60;50.10
24144;DHT22;12307;50.828;6.080;2023-03-18T14:22:25;22.60;50.20
24144;DHT22;12307;50.828;6.080;2023-03-18T14:27:57;22.60;50.20
24144;DHT22;12307;50.828;6.080;2023-03-18T14:30:46;22.60;50.20
24144;DHT22;12307;50.828;6.080;2023-03-18T14:33:34;22.60;50.20
24144;DHT22;12307;50.828;6.080;2023-03-18T14:36:07;22.60;50.10
24144;DHT22;12307;50.828;6.080;2023-03-18T14:38:37;22.60;50.10
24144;DHT22;12307;50.828;6.080;2023-03-18T14:41:13;22.60;50.10
24144;DHT22;12307;50.828;6.080;2023-03-18T14:43:46;22.60;50.10
24144;DHT22;12307;50.828;6.080;2023-03-18T14:46:22;22.60;50.10
24144;DHT22;12307;50.828;6.080;2023-03-18T14:48:50;22.60;50.10
24144;DHT22;12307;50.828;6.080;2023-03-18T14:51:20;22.60;50.20
24144;DHT22;12307;50.828;6.080;2023-03-18T14:53:49;22.60;50.30
24144;DHT22;12307;50.828;6.080;2023-03-18T14:56:16;22.50;50.20
24144;DHT22;12307;50.828;6.080;2023-03-18T14:58:44;22.60;50.20
24144;DHT22;12307;50.828;6.080;2023-03-18T15:01:12;22.60;50.30
24144;DHT22;12307;50.828;6.080;2023-03-18T15:03:42;22.50;50.20
24144;DHT22;12307;50.828;6.080;2023-03-18T15:06:16;22.60;50.30
24144;DHT22;12307;50.828;6.080;2023-03-18T15:08:48;22.50;50.20
24144;DHT22;12307;50.828;6.080;2023-03-18T15:11:15;22.50;50.30
24144;DHT22;12307;50.828;6.080;2023-03-18T15:13:43;22.50;50.30
24144;DHT22;12307;50.828;6.080;2023-03-18T15:16:11;22.40;50.30
24144;DHT22;12307;50.828;6.080;2023-03-18T15:18:39;22.40;50.40
24144;DHT22;12307;50.828;6.080;2023-03-18T15:21:09;22.30;50.40
24144;DHT22;12307;50.828;6.080;2023-03-18T15:23:39;22.30;50.50
24144;DHT22;12307;50.828;6.080;2023-03-18T15:26:07;22.20;50.50
24144;DHT22;12307;50.828;6.080;2023-03-18T15:28:45;22.10;50.50
24144;DHT22;12307;50.828;6.080;2023-03-18T15:31:21;22.10;50.60
24144;DHT22;12307;50.828;6.080;2023-03-18T15:33:55;22.10;50.60
24144;DHT22;12307;50.828;6.080;2023-03-18T15:36:28;22.00;50.70
24144;DHT22;12307;50.828;6.080;2023-03-18T15:38:54;22.00;50.70
24144;DHT22;12307;50.828;6.080;2023-03-18T15:41:21;22.00;50.80
24144;DHT22;12307;50.828;6.080;2023-03-18T15:43:51;21.90;50.80
24144;DHT22;12307;50.828;6.080;2023-03-18T15:46:21;21.90;50.90
24144;DHT22;12307;50.828;6.080;2023-03-18T15:48:51;21.90;51.00
24144;DHT22;12307;50.828;6.080;2023-03-18T15:51:26;21.80;50.90
24144;DHT22;12307;50.828;6.080;2023-03-18T15:53:54;21.80;51.00
24144;DHT22;12307;50.828;6.080;2023-03-18T15:56:25;21.80;51.10
24144;DHT22;12307;50.828;6.080;2023-03-18T15:59:03;21.70;51.10